KRSTKTVL

Guest
Details From KRST - Rochester Intl
To KTVL - South Lake Tahoe
Flight Number -
Tags decoded
Created
Modified
Stats Distance 1,306 nm / 2,420 km
Max Altitude 0 ft / 0 m
Waypoints 4
Social Downloads 0
Likes 0
Share VATSIM

Download

Looking for another format? Having issues loading an existing format? Contact us
Advertisement - Login to hide

Notes

Requested: KRST FOD Q122 MACUS KTVL Unmatched points: Q122

Route

KRST FOD MACUS KTVL

ID Type Via Altitude (ft/m) Position (lat/lon) Dist (leg/tot) Name
O KRST APT - 0 / 0 43.90786 / -92.50008 - / 0 nm Rochester Intl
FOD VOR - 0 / 0 42.61111 / -94.29481 110 / 110 nm FORT DODGE VORTAC
MACUS FIX - 0 / 0 39.88333 / -118.80000 1114 / 1225 nm
O KTVL APT - 0 / 0 38.89388 / -119.99533 81 / 1306 nm South Lake Tahoe

Altitude Profile

Advertisement - Login to hide

Weather


0- 5 10 15 20 25 30 35+ Temperature / °C

Clouds and Precipitation
Forecast for 2019-11-23 00:00 UTC. Updated 4 hours ago

Ground ~20,000 ft ~40,000 ft Winds

KRST

Details ICAO KRST (RST)
Name Rochester Intl
Region United States
Timezone America/Chicago (UTC-6.0)
Stats Elevation 1,317 ft / 401 m (AMSL)
Location 43.907900° -92.500100°
Runways 2
Magnetic Variation 0.437° W

METAR

KRST 230054Z 20003KT 10SM CLR M04/M07 A3005 RMK AO2 SLP199 T10441067

Decode

TAF

KRST 222330Z 2300/2324 22007KT P6SM SKC FM231200 22010KT P6SM SKC FM231600 25010G19KT P6SM SKC

Decode

Departure Runways

ID Width Length Bearing (true/mag) Surface Threshold Overrun Markings Lighting
02 150 ft / 46 m 7,308 ft / 2,227 m 26.42° / 26.85° CONCRETE 0 ft / 0 m 0 ft / 0 m APP EDGE THRESHOLD REIL-OMNI
13 150 ft / 46 m 9,043 ft / 2,756 m 132.25° / 132.69° CONCRETE 0 ft / 0 m 0 ft / 0 m PREC-APP CENTERLINE EDGE THRESHOLD MALSR
20 150 ft / 46 m 7,308 ft / 2,227 m 206.43° / 206.86° CONCRETE 0 ft / 0 m 0 ft / 0 m APP EDGE THRESHOLD REIL-OMNI
31 150 ft / 46 m 9,043 ft / 2,756 m 312.27° / 312.70° CONCRETE 0 ft / 0 m 0 ft / 0 m PREC-APP CENTERLINE EDGE THRESHOLD MALSR

KTVL

Details ICAO KTVL (TVL)
Name South Lake Tahoe
Region United States
Timezone America/Los_Angeles (UTC-8.0)
Stats Elevation 6,268 ft / 1,910 m (AMSL)
Location 38.893900° -119.995000°
Runways 1
Magnetic Variation 13.129° E

METAR

KTVL 230053Z AUTO 00000KT 10SM OVC048 03/M01 A3020 RMK AO2 SLP218 T00331011

Decode

TAF

KTVL 222322Z 2300/2324 VRB04KT P6SM BKN045 FM231200 17004KT P6SM FEW040

Decode

Destination Runways

ID Width Length Bearing (true/mag) Surface Threshold Overrun Markings Lighting
18 100 ft / 30 m 8,549 ft / 2,606 m 192.86° / 179.73° ASPHALT 801 ft / 244 m 200 ft / 61 m APP EDGE THRESHOLD MALSF REIL-OMNI
36 100 ft / 30 m 8,549 ft / 2,606 m 12.86° / 359.73° ASPHALT 2,034 ft / 620 m 200 ft / 61 m APP EDGE THRESHOLD

Approach Navaids

Runway Type Ident Frequency Range Bearing (true/mag) Slope Elevation
18 LOC-LOC ITVL 108.90 MHz 18 nm / 33 km 186.00° / 172.87 ° - 6,264 ft / 1,909 m (AMSL)
18 DME ITVL 108.90 MHz 18 nm / 33 km - - 6,264 ft / 1,909 m (AMSL)

Popular Alternatives